Terminal Aerodrome Forecast
Issued by NWS

Current Version | Previous Version | Graphics & Text | Print | Product List | Glossary On
Versions: 1 2 3 4 5 6 7 8 9 10 11 12 13 14 15 16 17 18 19 20 21 22 23 24 25
178
FTUS41 KPBZ 230520
TAFMGW
TAF
KMGW 230520Z 2306/2406 21003KT P6SM SKC
     FM230900 21003KT 5SM BR SKC
     FM231300 23003KT P6SM SKC
     FM231500 26004KT P6SM FEW035
     FM240200 VRB03KT P6SM SCT250=

USA.gov is the U.S. government's official web portal to all federal, state and local government web resources and services.